sensor_id;sensor_type;location;lat;lon;timestamp;P1;durP1;ratioP1;P2;durP2;ratioP2
26965;SDS011;14522;52.068;4.414;2022-08-19T00:01:52;6.05;;;2.22;;
26965;SDS011;14522;52.068;4.414;2022-08-19T00:04:21;2.50;;;2.10;;
26965;SDS011;14522;52.068;4.414;2022-08-19T00:06:47;3.53;;;2.55;;
26965;SDS011;14522;52.068;4.414;2022-08-19T00:09:16;4.03;;;2.15;;
26965;SDS011;14522;52.068;4.414;2022-08-19T00:11:43;9.38;;;2.28;;
26965;SDS011;14522;52.068;4.414;2022-08-19T00:14:10;8.48;;;2.90;;
26965;SDS011;14522;52.068;4.414;2022-08-19T00:16:37;4.90;;;2.17;;
26965;SDS011;14522;52.068;4.414;2022-08-19T00:19:04;6.95;;;2.95;;
26965;SDS011;14522;52.068;4.414;2022-08-19T00:21:31;5.38;;;2.28;;
26965;SDS011;14522;52.068;4.414;2022-08-19T00:23:57;5.15;;;2.20;;
26965;SDS011;14522;52.068;4.414;2022-08-19T00:26:25;3.67;;;2.00;;
26965;SDS011;14522;52.068;4.414;2022-08-19T00:28:51;4.57;;;2.25;;
26965;SDS011;14522;52.068;4.414;2022-08-19T00:31:18;8.23;;;2.67;;
26965;SDS011;14522;52.068;4.414;2022-08-19T00:33:44;7.22;;;3.00;;
26965;SDS011;14522;52.068;4.414;2022-08-19T00:36:11;2.25;;;1.30;;
26965;SDS011;14522;52.068;4.414;2022-08-19T00:38:38;1.55;;;0.90;;
26965;SDS011;14522;52.068;4.414;2022-08-19T00:41:07;6.88;;;3.10;;
26965;SDS011;14522;52.068;4.414;2022-08-19T00:43:34;5.13;;;2.15;;
26965;SDS011;14522;52.068;4.414;2022-08-19T00:46:01;8.38;;;3.20;;
26965;SDS011;14522;52.068;4.414;2022-08-19T00:48:31;5.32;;;2.08;;
26965;SDS011;14522;52.068;4.414;2022-08-19T00:50:58;5.35;;;2.58;;
26965;SDS011;14522;52.068;4.414;2022-08-19T00:53:26;4.03;;;1.90;;
26965;SDS011;14522;52.068;4.414;2022-08-19T00:55:53;7.95;;;2.50;;
26965;SDS011;14522;52.068;4.414;2022-08-19T00:58:22;3.65;;;2.20;;
26965;SDS011;14522;52.068;4.414;2022-08-19T01:00:50;4.57;;;2.47;;
26965;SDS011;14522;52.068;4.414;2022-08-19T01:03:17;4.15;;;1.50;;
26965;SDS011;14522;52.068;4.414;2022-08-19T01:05:44;2.30;;;1.42;;
26965;SDS011;14522;52.068;4.414;2022-08-19T01:08:12;3.95;;;2.15;;
26965;SDS011;14522;52.068;4.414;2022-08-19T01:10:50;5.97;;;2.85;;
26965;SDS011;14522;52.068;4.414;2022-08-19T01:13:19;3.80;;;2.33;;
26965;SDS011;14522;52.068;4.414;2022-08-19T01:15:50;1.60;;;1.23;;
26965;SDS011;14522;52.068;4.414;2022-08-19T01:18:18;8.32;;;2.72;;
26965;SDS011;14522;52.068;4.414;2022-08-19T01:20:45;7.85;;;3.22;;
26965;SDS011;14522;52.068;4.414;2022-08-19T01:23:12;3.42;;;2.58;;
26965;SDS011;14522;52.068;4.414;2022-08-19T01:25:46;4.50;;;2.97;;
26965;SDS011;14522;52.068;4.414;2022-08-19T01:28:20;6.07;;;3.88;;
26965;SDS011;14522;52.068;4.414;2022-08-19T01:30:59;9.40;;;5.28;;
26965;SDS011;14522;52.068;4.414;2022-08-19T01:33:26;8.45;;;5.50;;
26965;SDS011;14522;52.068;4.414;2022-08-19T01:35:52;9.82;;;4.72;;
26965;SDS011;14522;52.068;4.414;2022-08-19T01:38:20;4.88;;;2.75;;
26965;SDS011;14522;52.068;4.414;2022-08-19T01:40:47;6.97;;;4.25;;
26965;SDS011;14522;52.068;4.414;2022-08-19T01:43:13;10.85;;;5.10;;
26965;SDS011;14522;52.068;4.414;2022-08-19T01:45:41;2.63;;;1.83;;
26965;SDS011;14522;52.068;4.414;2022-08-19T01:48:08;5.43;;;3.22;;
26965;SDS011;14522;52.068;4.414;2022-08-19T01:50:35;8.68;;;3.10;;
26965;SDS011;14522;52.068;4.414;2022-08-19T01:53:02;3.67;;;2.58;;
26965;SDS011;14522;52.068;4.414;2022-08-19T01:55:33;11.95;;;7.13;;
26965;SDS011;14522;52.068;4.414;2022-08-19T01:58:00;9.25;;;6.20;;
26965;SDS011;14522;52.068;4.414;2022-08-19T02:00:28;8.95;;;6.28;;
26965;SDS011;14522;52.068;4.414;2022-08-19T02:02:55;9.77;;;7.40;;
26965;SDS011;14522;52.068;4.414;2022-08-19T02:05:22;13.13;;;8.25;;
26965;SDS011;14522;52.068;4.414;2022-08-19T02:07:49;10.85;;;6.18;;
26965;SDS011;14522;52.068;4.414;2022-08-19T02:10:17;12.63;;;8.70;;
26965;SDS011;14522;52.068;4.414;2022-08-19T02:12:45;13.40;;;10.07;;
26965;SDS011;14522;52.068;4.414;2022-08-19T02:15:13;14.10;;;7.93;;
26965;SDS011;14522;52.068;4.414;2022-08-19T02:17:39;10.43;;;8.45;;
26965;SDS011;14522;52.068;4.414;2022-08-19T02:20:06;10.98;;;7.43;;
26965;SDS011;14522;52.068;4.414;2022-08-19T02:22:33;9.38;;;7.40;;
26965;SDS011;14522;52.068;4.414;2022-08-19T02:24:59;13.07;;;8.93;;
26965;SDS011;14522;52.068;4.414;2022-08-19T02:27:26;4.47;;;3.70;;
26965;SDS011;14522;52.068;4.414;2022-08-19T02:29:52;5.18;;;3.50;;
26965;SDS011;14522;52.068;4.414;2022-08-19T02:32:19;2.83;;;2.50;;
26965;SDS011;14522;52.068;4.414;2022-08-19T02:34:46;10.63;;;7.50;;
26965;SDS011;14522;52.068;4.414;2022-08-19T02:37:13;13.18;;;9.50;;
26965;SDS011;14522;52.068;4.414;2022-08-19T02:40:03;10.10;;;7.43;;
26965;SDS011;14522;52.068;4.414;2022-08-19T02:42:37;9.38;;;7.70;;
26965;SDS011;14522;52.068;4.414;2022-08-19T02:45:04;9.45;;;7.10;;
26965;SDS011;14522;52.068;4.414;2022-08-19T02:47:31;12.68;;;8.68;;
26965;SDS011;14522;52.068;4.414;2022-08-19T02:49:58;8.07;;;6.32;;
26965;SDS011;14522;52.068;4.414;2022-08-19T02:52:24;13.35;;;8.05;;
26965;SDS011;14522;52.068;4.414;2022-08-19T02:54:51;12.98;;;7.78;;
26965;SDS011;14522;52.068;4.414;2022-08-19T02:57:17;15.73;;;11.80;;
26965;SDS011;14522;52.068;4.414;2022-08-19T02:59:44;14.32;;;10.70;;
26965;SDS011;14522;52.068;4.414;2022-08-19T03:02:10;15.90;;;10.55;;
26965;SDS011;14522;52.068;4.414;2022-08-19T03:04:37;14.25;;;9.18;;
26965;SDS011;14522;52.068;4.414;2022-08-19T03:07:03;11.68;;;7.20;;
26965;SDS011;14522;52.068;4.414;2022-08-19T03:09:36;14.27;;;10.07;;
26965;SDS011;14522;52.068;4.414;2022-08-19T03:12:03;15.52;;;9.23;;
26965;SDS011;14522;52.068;4.414;2022-08-19T03:14:30;24.98;;;14.32;;
26965;SDS011;14522;52.068;4.414;2022-08-19T03:16:57;15.02;;;10.98;;
26965;SDS011;14522;52.068;4.414;2022-08-19T03:19:24;17.38;;;11.82;;
26965;SDS011;14522;52.068;4.414;2022-08-19T03:21:50;15.40;;;9.85;;
26965;SDS011;14522;52.068;4.414;2022-08-19T03:24:17;18.05;;;11.15;;
26965;SDS011;14522;52.068;4.414;2022-08-19T03:26:45;23.67;;;13.35;;
26965;SDS011;14522;52.068;4.414;2022-08-19T03:29:12;24.65;;;15.00;;
26965;SDS011;14522;52.068;4.414;2022-08-19T03:31:40;22.48;;;15.02;;
26965;SDS011;14522;52.068;4.414;2022-08-19T03:34:19;17.00;;;9.73;;
26965;SDS011;14522;52.068;4.414;2022-08-19T03:36:46;18.63;;;11.13;;
26965;SDS011;14522;52.068;4.414;2022-08-19T03:39:13;21.58;;;14.00;;
26965;SDS011;14522;52.068;4.414;2022-08-19T03:41:40;25.30;;;14.38;;
26965;SDS011;14522;52.068;4.414;2022-08-19T03:44:11;24.80;;;16.55;;
26965;SDS011;14522;52.068;4.414;2022-08-19T03:46:44;20.67;;;11.68;;
26965;SDS011;14522;52.068;4.414;2022-08-19T03:49:10;15.43;;;10.38;;
26965;SDS011;14522;52.068;4.414;2022-08-19T03:51:40;22.10;;;14.32;;
26965;SDS011;14522;52.068;4.414;2022-08-19T03:54:07;13.63;;;9.57;;
26965;SDS011;14522;52.068;4.414;2022-08-19T03:56:35;23.98;;;15.57;;
26965;SDS011;14522;52.068;4.414;2022-08-19T03:59:02;23.98;;;15.48;;
26965;SDS011;14522;52.068;4.414;2022-08-19T04:01:29;26.02;;;16.05;;
26965;SDS011;14522;52.068;4.414;2022-08-19T04:04:00;30.90;;;20.58;;
26965;SDS011;14522;52.068;4.414;2022-08-19T04:06:30;42.38;;;25.70;;
26965;SDS011;14522;52.068;4.414;2022-08-19T04:08:57;39.53;;;23.13;;
26965;SDS011;14522;52.068;4.414;2022-08-19T04:11:26;44.95;;;25.73;;
26965;SDS011;14522;52.068;4.414;2022-08-19T04:14:13;32.67;;;20.80;;
26965;SDS011;14522;52.068;4.414;2022-08-19T04:16:40;42.75;;;27.85;;
26965;SDS011;14522;52.068;4.414;2022-08-19T04:19:07;30.67;;;17.38;;
26965;SDS011;14522;52.068;4.414;2022-08-19T04:21:33;44.25;;;24.70;;
26965;SDS011;14522;52.068;4.414;2022-08-19T04:24:00;44.47;;;28.40;;
26965;SDS011;14522;52.068;4.414;2022-08-19T04:26:30;48.78;;;28.40;;
26965;SDS011;14522;52.068;4.414;2022-08-19T04:29:07;44.80;;;26.40;;
26965;SDS011;14522;52.068;4.414;2022-08-19T04:31:38;43.83;;;26.88;;
26965;SDS011;14522;52.068;4.414;2022-08-19T04:34:05;26.42;;;16.73;;
26965;SDS011;14522;52.068;4.414;2022-08-19T04:36:33;35.25;;;20.45;;
26965;SDS011;14522;52.068;4.414;2022-08-19T04:39:01;45.58;;;28.75;;
26965;SDS011;14522;52.068;4.414;2022-08-19T04:41:28;41.08;;;25.65;;
26965;SDS011;14522;52.068;4.414;2022-08-19T04:44:13;49.00;;;27.77;;
26965;SDS011;14522;52.068;4.414;2022-08-19T04:46:40;45.42;;;28.42;;
26965;SDS011;14522;52.068;4.414;2022-08-19T04:49:18;42.22;;;25.42;;
26965;SDS011;14522;52.068;4.414;2022-08-19T04:51:45;37.78;;;22.98;;
26965;SDS011;14522;52.068;4.414;2022-08-19T04:54:13;15.93;;;8.45;;
26965;SDS011;14522;52.068;4.414;2022-08-19T04:56:56;35.97;;;23.23;;
26965;SDS011;14522;52.068;4.414;2022-08-19T04:59:22;42.75;;;26.08;;
26965;SDS011;14522;52.068;4.414;2022-08-19T05:01:48;40.28;;;23.50;;
26965;SDS011;14522;52.068;4.414;2022-08-19T05:04:19;41.08;;;23.23;;
26965;SDS011;14522;52.068;4.414;2022-08-19T05:06:48;35.60;;;22.80;;
26965;SDS011;14522;52.068;4.414;2022-08-19T05:09:15;39.20;;;24.30;;
26965;SDS011;14522;52.068;4.414;2022-08-19T05:11:42;24.98;;;13.52;;
26965;SDS011;14522;52.068;4.414;2022-08-19T05:14:08;37.28;;;22.42;;
26965;SDS011;14522;52.068;4.414;2022-08-19T05:16:35;37.00;;;18.65;;
26965;SDS011;14522;52.068;4.414;2022-08-19T05:19:02;41.25;;;23.17;;
26965;SDS011;14522;52.068;4.414;2022-08-19T05:21:47;30.58;;;18.33;;
26965;SDS011;14522;52.068;4.414;2022-08-19T05:24:32;41.17;;;21.23;;
26965;SDS011;14522;52.068;4.414;2022-08-19T05:27:21;43.20;;;22.45;;
26965;SDS011;14522;52.068;4.414;2022-08-19T05:29:48;38.10;;;21.75;;
26965;SDS011;14522;52.068;4.414;2022-08-19T05:32:14;43.55;;;23.55;;
26965;SDS011;14522;52.068;4.414;2022-08-19T05:34:41;39.75;;;21.98;;
26965;SDS011;14522;52.068;4.414;2022-08-19T05:37:07;29.85;;;16.05;;
26965;SDS011;14522;52.068;4.414;2022-08-19T05:39:35;45.22;;;21.48;;
26965;SDS011;14522;52.068;4.414;2022-08-19T05:42:06;17.65;;;11.77;;
26965;SDS011;14522;52.068;4.414;2022-08-19T05:44:34;37.60;;;20.60;;
26965;SDS011;14522;52.068;4.414;2022-08-19T05:47:01;38.47;;;20.13;;
26965;SDS011;14522;52.068;4.414;2022-08-19T05:49:30;39.75;;;20.90;;
26965;SDS011;14522;52.068;4.414;2022-08-19T05:51:57;36.78;;;18.08;;
26965;SDS011;14522;52.068;4.414;2022-08-19T05:54:24;34.50;;;19.15;;
26965;SDS011;14522;52.068;4.414;2022-08-19T05:56:51;35.45;;;18.45;;
26965;SDS011;14522;52.068;4.414;2022-08-19T05:59:18;36.17;;;19.13;;
26965;SDS011;14522;52.068;4.414;2022-08-19T06:01:51;32.80;;;19.73;;
26965;SDS011;14522;52.068;4.414;2022-08-19T06:04:18;43.30;;;20.38;;
26965;SDS011;14522;52.068;4.414;2022-08-19T06:06:45;43.22;;;19.58;;
26965;SDS011;14522;52.068;4.414;2022-08-19T06:09:12;34.22;;;17.63;;
26965;SDS011;14522;52.068;4.414;2022-08-19T06:11:44;33.97;;;16.95;;
26965;SDS011;14522;52.068;4.414;2022-08-19T06:14:13;36.00;;;17.67;;
26965;SDS011;14522;52.068;4.414;2022-08-19T06:16:42;35.38;;;16.15;;
26965;SDS011;14522;52.068;4.414;2022-08-19T06:19:13;33.13;;;18.35;;
26965;SDS011;14522;52.068;4.414;2022-08-19T06:21:40;39.58;;;17.88;;
26965;SDS011;14522;52.068;4.414;2022-08-19T06:24:07;28.83;;;15.68;;
26965;SDS011;14522;52.068;4.414;2022-08-19T06:26:36;36.15;;;17.85;;
26965;SDS011;14522;52.068;4.414;2022-08-19T06:29:03;28.10;;;14.60;;
26965;SDS011;14522;52.068;4.414;2022-08-19T06:31:32;31.00;;;12.88;;
26965;SDS011;14522;52.068;4.414;2022-08-19T06:34:03;30.88;;;16.35;;
26965;SDS011;14522;52.068;4.414;2022-08-19T06:36:31;29.63;;;15.45;;
26965;SDS011;14522;52.068;4.414;2022-08-19T06:39:04;36.60;;;17.80;;
26965;SDS011;14522;52.068;4.414;2022-08-19T06:41:34;19.58;;;11.60;;
26965;SDS011;14522;52.068;4.414;2022-08-19T06:44:05;32.20;;;15.23;;
26965;SDS011;14522;52.068;4.414;2022-08-19T06:46:38;27.67;;;16.40;;
26965;SDS011;14522;52.068;4.414;2022-08-19T06:49:05;20.17;;;11.10;;
26965;SDS011;14522;52.068;4.414;2022-08-19T06:51:36;21.70;;;12.43;;
26965;SDS011;14522;52.068;4.414;2022-08-19T06:54:09;24.38;;;12.68;;
26965;SDS011;14522;52.068;4.414;2022-08-19T06:56:45;39.38;;;16.30;;
26965;SDS011;14522;52.068;4.414;2022-08-19T06:59:15;35.45;;;15.35;;
26965;SDS011;14522;52.068;4.414;2022-08-19T07:01:43;35.40;;;16.05;;
26965;SDS011;14522;52.068;4.414;2022-08-19T07:04:12;25.35;;;12.68;;
26965;SDS011;14522;52.068;4.414;2022-08-19T07:06:40;22.15;;;12.00;;
26965;SDS011;14522;52.068;4.414;2022-08-19T07:09:11;24.70;;;14.20;;
26965;SDS011;14522;52.068;4.414;2022-08-19T07:11:37;29.80;;;14.55;;
26965;SDS011;14522;52.068;4.414;2022-08-19T07:14:04;24.77;;;14.30;;
26965;SDS011;14522;52.068;4.414;2022-08-19T07:16:44;31.60;;;15.18;;
26965;SDS011;14522;52.068;4.414;2022-08-19T07:19:12;32.95;;;15.68;;
26965;SDS011;14522;52.068;4.414;2022-08-19T07:21:44;21.02;;;12.75;;
26965;SDS011;14522;52.068;4.414;2022-08-19T07:24:10;12.68;;;7.85;;
26965;SDS011;14522;52.068;4.414;2022-08-19T07:26:39;33.80;;;12.70;;
26965;SDS011;14522;52.068;4.414;2022-08-19T07:29:07;33.47;;;12.90;;
26965;SDS011;14522;52.068;4.414;2022-08-19T07:31:34;19.13;;;11.50;;
26965;SDS011;14522;52.068;4.414;2022-08-19T07:34:04;12.35;;;7.28;;
26965;SDS011;14522;52.068;4.414;2022-08-19T07:36:35;19.75;;;9.73;;
26965;SDS011;14522;52.068;4.414;2022-08-19T07:39:04;21.67;;;10.18;;
26965;SDS011;14522;52.068;4.414;2022-08-19T07:41:31;23.55;;;11.52;;
26965;SDS011;14522;52.068;4.414;2022-08-19T07:43:58;15.88;;;7.28;;
26965;SDS011;14522;52.068;4.414;2022-08-19T07:46:30;23.80;;;10.80;;
26965;SDS011;14522;52.068;4.414;2022-08-19T07:48:57;17.65;;;9.80;;
26965;SDS011;14522;52.068;4.414;2022-08-19T07:51:23;13.48;;;7.65;;
26965;SDS011;14522;52.068;4.414;2022-08-19T07:54:02;13.00;;;7.88;;
26965;SDS011;14522;52.068;4.414;2022-08-19T07:56:29;10.00;;;5.70;;
26965;SDS011;14522;52.068;4.414;2022-08-19T07:58:55;19.50;;;7.22;;
26965;SDS011;14522;52.068;4.414;2022-08-19T08:01:27;13.02;;;6.57;;
26965;SDS011;14522;52.068;4.414;2022-08-19T08:03:54;14.65;;;6.35;;
26965;SDS011;14522;52.068;4.414;2022-08-19T08:06:40;12.13;;;5.18;;
26965;SDS011;14522;52.068;4.414;2022-08-19T08:09:28;13.37;;;5.50;;
26965;SDS011;14522;52.068;4.414;2022-08-19T08:12:02;7.20;;;3.92;;
26965;SDS011;14522;52.068;4.414;2022-08-19T08:14:57;13.87;;;4.43;;
26965;SDS011;14522;52.068;4.414;2022-08-19T08:17:25;12.57;;;4.28;;
26965;SDS011;14522;52.068;4.414;2022-08-19T08:20:12;10.73;;;3.92;;
26965;SDS011;14522;52.068;4.414;2022-08-19T08:22:42;6.22;;;3.28;;
26965;SDS011;14522;52.068;4.414;2022-08-19T08:25:28;9.75;;;4.35;;
26965;SDS011;14522;52.068;4.414;2022-08-19T08:27:57;8.73;;;3.90;;
26965;SDS011;14522;52.068;4.414;2022-08-19T08:30:26;8.25;;;4.03;;
26965;SDS011;14522;52.068;4.414;2022-08-19T08:32:57;10.40;;;4.80;;
26965;SDS011;14522;52.068;4.414;2022-08-19T08:35:24;9.43;;;4.15;;
26965;SDS011;14522;52.068;4.414;2022-08-19T08:37:51;7.35;;;3.53;;
26965;SDS011;14522;52.068;4.414;2022-08-19T08:41:22;7.60;;;3.60;;
26965;SDS011;14522;52.068;4.414;2022-08-19T08:43:38;5.28;;;2.33;;
26965;SDS011;14522;52.068;4.414;2022-08-19T08:46:10;7.00;;;2.13;;
26965;SDS011;14522;52.068;4.414;2022-08-19T08:48:43;5.95;;;2.60;;
26965;SDS011;14522;52.068;4.414;2022-08-19T08:51:22;7.75;;;2.92;;
26965;SDS011;14522;52.068;4.414;2022-08-19T08:53:56;14.32;;;3.38;;
26965;SDS011;14522;52.068;4.414;2022-08-19T08:56:23;5.85;;;2.88;;
26965;SDS011;14522;52.068;4.414;2022-08-19T08:59:00;12.30;;;4.30;;
26965;SDS011;14522;52.068;4.414;2022-08-19T09:01:27;5.72;;;3.53;;
26965;SDS011;14522;52.068;4.414;2022-08-19T09:03:56;9.45;;;4.18;;
26965;SDS011;14522;52.068;4.414;2022-08-19T09:09:17;5.90;;;2.05;;
26965;SDS011;14522;52.068;4.414;2022-08-19T09:14:17;11.65;;;3.03;;
26965;SDS011;14522;52.068;4.414;2022-08-19T09:17:04;6.13;;;2.63;;
26965;SDS011;14522;52.068;4.414;2022-08-19T09:19:34;5.15;;;2.10;;
26965;SDS011;14522;52.068;4.414;2022-08-19T09:22:01;6.65;;;2.78;;
26965;SDS011;14522;52.068;4.414;2022-08-19T09:24:27;14.05;;;3.08;;
26965;SDS011;14522;52.068;4.414;2022-08-19T09:26:56;4.97;;;2.33;;
26965;SDS011;14522;52.068;4.414;2022-08-19T09:29:22;7.25;;;3.00;;
26965;SDS011;14522;52.068;4.414;2022-08-19T09:31:49;6.60;;;2.25;;
26965;SDS011;14522;52.068;4.414;2022-08-19T09:34:16;7.05;;;2.58;;
26965;SDS011;14522;52.068;4.414;2022-08-19T09:36:47;6.47;;;2.40;;
26965;SDS011;14522;52.068;4.414;2022-08-19T09:39:19;9.35;;;2.38;;
26965;SDS011;14522;52.068;4.414;2022-08-19T09:41:46;5.88;;;2.50;;
26965;SDS011;14522;52.068;4.414;2022-08-19T09:44:14;8.50;;;2.40;;
26965;SDS011;14522;52.068;4.414;2022-08-19T09:46:40;6.80;;;2.13;;
26965;SDS011;14522;52.068;4.414;2022-08-19T09:49:07;8.05;;;2.42;;
26965;SDS011;14522;52.068;4.414;2022-08-19T09:51:33;7.70;;;2.42;;
26965;SDS011;14522;52.068;4.414;2022-08-19T09:54:01;4.40;;;2.22;;
26965;SDS011;14522;52.068;4.414;2022-08-19T09:56:30;3.85;;;2.05;;
26965;SDS011;14522;52.068;4.414;2022-08-19T09:58:58;3.65;;;1.75;;
26965;SDS011;14522;52.068;4.414;2022-08-19T10:01:26;3.17;;;1.52;;
26965;SDS011;14522;52.068;4.414;2022-08-19T10:03:54;5.10;;;2.13;;
26965;SDS011;14522;52.068;4.414;2022-08-19T10:06:22;3.83;;;2.00;;
26965;SDS011;14522;52.068;4.414;2022-08-19T10:09:09;5.82;;;2.30;;
26965;SDS011;14522;52.068;4.414;2022-08-19T10:11:39;5.05;;;1.95;;
26965;SDS011;14522;52.068;4.414;2022-08-19T10:14:17;5.20;;;2.13;;
26965;SDS011;14522;52.068;4.414;2022-08-19T10:16:48;4.60;;;2.10;;
26965;SDS011;14522;52.068;4.414;2022-08-19T10:19:15;4.25;;;2.03;;
26965;SDS011;14522;52.068;4.414;2022-08-19T10:21:50;4.22;;;1.77;;
26965;SDS011;14522;52.068;4.414;2022-08-19T10:24:18;3.42;;;1.48;;
26965;SDS011;14522;52.068;4.414;2022-08-19T10:26:46;3.60;;;1.60;;
26965;SDS011;14522;52.068;4.414;2022-08-19T10:29:24;5.25;;;1.75;;
26965;SDS011;14522;52.068;4.414;2022-08-19T10:31:59;3.88;;;1.73;;
26965;SDS011;14522;52.068;4.414;2022-08-19T10:34:28;7.05;;;2.00;;
26965;SDS011;14522;52.068;4.414;2022-08-19T10:36:55;6.25;;;1.67;;
26965;SDS011;14522;52.068;4.414;2022-08-19T10:39:26;6.28;;;1.75;;
26965;SDS011;14522;52.068;4.414;2022-08-19T10:41:56;3.90;;;1.20;;
26965;SDS011;14522;52.068;4.414;2022-08-19T10:44:22;3.28;;;1.73;;
26965;SDS011;14522;52.068;4.414;2022-08-19T10:46:57;5.22;;;1.45;;
26965;SDS011;14522;52.068;4.414;2022-08-19T10:49:25;1.88;;;1.10;;
26965;SDS011;14522;52.068;4.414;2022-08-19T10:51:53;7.82;;;1.33;;
26965;SDS011;14522;52.068;4.414;2022-08-19T10:54:44;2.28;;;1.27;;
26965;SDS011;14522;52.068;4.414;2022-08-19T10:57:33;1.50;;;0.90;;
26965;SDS011;14522;52.068;4.414;2022-08-19T11:00:20;3.17;;;0.90;;
26965;SDS011;14522;52.068;4.414;2022-08-19T11:02:47;2.78;;;1.05;;
26965;SDS011;14522;52.068;4.414;2022-08-19T11:05:13;1.67;;;0.93;;
26965;SDS011;14522;52.068;4.414;2022-08-19T11:07:41;3.38;;;1.02;;
26965;SDS011;14522;52.068;4.414;2022-08-19T11:10:08;3.95;;;1.25;;
26965;SDS011;14522;52.068;4.414;2022-08-19T11:12:38;2.53;;;0.80;;
26965;SDS011;14522;52.068;4.414;2022-08-19T11:15:05;3.40;;;0.88;;
26965;SDS011;14522;52.068;4.414;2022-08-19T11:17:34;5.75;;;1.17;;
26965;SDS011;14522;52.068;4.414;2022-08-19T11:20:00;3.75;;;1.00;;
26965;SDS011;14522;52.068;4.414;2022-08-19T11:22:29;1.58;;;0.90;;
26965;SDS011;14522;52.068;4.414;2022-08-19T11:25:07;5.75;;;1.00;;
26965;SDS011;14522;52.068;4.414;2022-08-19T11:27:37;2.75;;;1.27;;
26965;SDS011;14522;52.068;4.414;2022-08-19T11:30:03;2.92;;;1.08;;
26965;SDS011;14522;52.068;4.414;2022-08-19T11:32:33;5.47;;;1.13;;
26965;SDS011;14522;52.068;4.414;2022-08-19T11:34:59;3.22;;;1.00;;
26965;SDS011;14522;52.068;4.414;2022-08-19T11:37:26;2.67;;;0.98;;
26965;SDS011;14522;52.068;4.414;2022-08-19T11:39:53;1.00;;;0.70;;
26965;SDS011;14522;52.068;4.414;2022-08-19T11:42:19;3.88;;;1.33;;
26965;SDS011;14522;52.068;4.414;2022-08-19T11:45:04;3.55;;;1.10;;
26965;SDS011;14522;52.068;4.414;2022-08-19T11:47:31;3.05;;;0.85;;
26965;SDS011;14522;52.068;4.414;2022-08-19T11:49:57;4.43;;;1.25;;
26965;SDS011;14522;52.068;4.414;2022-08-19T11:52:24;2.40;;;1.10;;
26965;SDS011;14522;52.068;4.414;2022-08-19T11:54:51;2.30;;;1.00;;
26965;SDS011;14522;52.068;4.414;2022-08-19T11:57:17;2.58;;;0.80;;
26965;SDS011;14522;52.068;4.414;2022-08-19T11:59:52;2.75;;;1.15;;
26965;SDS011;14522;52.068;4.414;2022-08-19T12:02:18;2.67;;;1.20;;
26965;SDS011;14522;52.068;4.414;2022-08-19T12:04:45;3.22;;;0.80;;
26965;SDS011;14522;52.068;4.414;2022-08-19T12:07:11;4.13;;;1.20;;
26965;SDS011;14522;52.068;4.414;2022-08-19T12:09:38;1.10;;;0.90;;
26965;SDS011;14522;52.068;4.414;2022-08-19T12:12:08;3.15;;;1.25;;
26965;SDS011;14522;52.068;4.414;2022-08-19T12:14:34;4.40;;;1.13;;
26965;SDS011;14522;52.068;4.414;2022-08-19T12:17:01;5.10;;;1.52;;
26965;SDS011;14522;52.068;4.414;2022-08-19T12:19:30;1.98;;;0.95;;
26965;SDS011;14522;52.068;4.414;2022-08-19T12:22:00;3.53;;;1.27;;
26965;SDS011;14522;52.068;4.414;2022-08-19T12:24:28;5.22;;;0.90;;
26965;SDS011;14522;52.068;4.414;2022-08-19T12:26:55;2.60;;;1.00;;
26965;SDS011;14522;52.068;4.414;2022-08-19T12:29:28;6.63;;;1.45;;
26965;SDS011;14522;52.068;4.414;2022-08-19T12:31:56;4.50;;;0.95;;
26965;SDS011;14522;52.068;4.414;2022-08-19T12:34:29;3.25;;;0.90;;
26965;SDS011;14522;52.068;4.414;2022-08-19T12:36:57;1.83;;;1.10;;
26965;SDS011;14522;52.068;4.414;2022-08-19T12:39:24;3.17;;;1.00;;
26965;SDS011;14522;52.068;4.414;2022-08-19T12:41:50;2.58;;;1.35;;
26965;SDS011;14522;52.068;4.414;2022-08-19T12:44:20;3.13;;;1.10;;
26965;SDS011;14522;52.068;4.414;2022-08-19T12:46:57;3.95;;;1.20;;
26965;SDS011;14522;52.068;4.414;2022-08-19T12:49:23;2.38;;;1.08;;
26965;SDS011;14522;52.068;4.414;2022-08-19T12:52:10;2.03;;;1.00;;
26965;SDS011;14522;52.068;4.414;2022-08-19T12:54:41;1.25;;;1.00;;
26965;SDS011;14522;52.068;4.414;2022-08-19T12:57:09;3.30;;;1.20;;
26965;SDS011;14522;52.068;4.414;2022-08-19T12:59:37;7.22;;;1.58;;
26965;SDS011;14522;52.068;4.414;2022-08-19T13:02:04;2.80;;;1.15;;
26965;SDS011;14522;52.068;4.414;2022-08-19T13:04:32;1.42;;;1.08;;
26965;SDS011;14522;52.068;4.414;2022-08-19T13:07:01;0.93;;;0.70;;
26965;SDS011;14522;52.068;4.414;2022-08-19T13:09:27;2.58;;;1.00;;
26965;SDS011;14522;52.068;4.414;2022-08-19T13:11:53;3.30;;;1.23;;
26965;SDS011;14522;52.068;4.414;2022-08-19T13:14:20;3.70;;;1.10;;
26965;SDS011;14522;52.068;4.414;2022-08-19T13:16:47;2.15;;;1.27;;
26965;SDS011;14522;52.068;4.414;2022-08-19T13:19:13;3.03;;;1.20;;
26965;SDS011;14522;52.068;4.414;2022-08-19T13:21:39;4.10;;;1.40;;
26965;SDS011;14522;52.068;4.414;2022-08-19T13:24:07;4.78;;;1.23;;
26965;SDS011;14522;52.068;4.414;2022-08-19T13:26:34;3.60;;;1.45;;
26965;SDS011;14522;52.068;4.414;2022-08-19T13:29:00;1.58;;;1.00;;
26965;SDS011;14522;52.068;4.414;2022-08-19T13:31:45;2.10;;;0.87;;
26965;SDS011;14522;52.068;4.414;2022-08-19T13:36:59;2.70;;;1.00;;
26965;SDS011;14522;52.068;4.414;2022-08-19T13:39:25;2.78;;;1.05;;
26965;SDS011;14522;52.068;4.414;2022-08-19T13:41:52;2.00;;;0.98;;
26965;SDS011;14522;52.068;4.414;2022-08-19T13:44:18;3.47;;;1.33;;
26965;SDS011;14522;52.068;4.414;2022-08-19T13:46:45;3.13;;;1.10;;
26965;SDS011;14522;52.068;4.414;2022-08-19T13:49:12;1.75;;;1.10;;
26965;SDS011;14522;52.068;4.414;2022-08-19T13:51:41;2.63;;;1.10;;
26965;SDS011;14522;52.068;4.414;2022-08-19T13:54:08;1.00;;;0.60;;
26965;SDS011;14522;52.068;4.414;2022-08-19T13:56:39;3.08;;;1.17;;
26965;SDS011;14522;52.068;4.414;2022-08-19T13:59:05;1.70;;;1.10;;
26965;SDS011;14522;52.068;4.414;2022-08-19T14:01:32;2.35;;;0.80;;
26965;SDS011;14522;52.068;4.414;2022-08-19T14:03:58;4.93;;;1.35;;
26965;SDS011;14522;52.068;4.414;2022-08-19T14:06:25;2.20;;;1.23;;
26965;SDS011;14522;52.068;4.414;2022-08-19T14:08:51;1.10;;;0.93;;
26965;SDS011;14522;52.068;4.414;2022-08-19T14:11:18;2.85;;;1.20;;
26965;SDS011;14522;52.068;4.414;2022-08-19T14:13:45;2.90;;;1.05;;
26965;SDS011;14522;52.068;4.414;2022-08-19T14:16:12;2.50;;;1.15;;
26965;SDS011;14522;52.068;4.414;2022-08-19T14:18:39;2.05;;;1.02;;
26965;SDS011;14522;52.068;4.414;2022-08-19T14:21:06;1.45;;;1.02;;
26965;SDS011;14522;52.068;4.414;2022-08-19T14:23:33;1.25;;;0.82;;
26965;SDS011;14522;52.068;4.414;2022-08-19T14:26:04;6.05;;;1.20;;
26965;SDS011;14522;52.068;4.414;2022-08-19T14:28:30;3.58;;;1.40;;
26965;SDS011;14522;52.068;4.414;2022-08-19T14:30:57;1.80;;;0.93;;
26965;SDS011;14522;52.068;4.414;2022-08-19T14:33:23;3.28;;;1.15;;
26965;SDS011;14522;52.068;4.414;2022-08-19T14:35:55;2.25;;;1.10;;
26965;SDS011;14522;52.068;4.414;2022-08-19T14:38:25;5.70;;;1.52;;
26965;SDS011;14522;52.068;4.414;2022-08-19T14:41:10;2.30;;;1.20;;
26965;SDS011;14522;52.068;4.414;2022-08-19T14:43:36;3.85;;;1.75;;
26965;SDS011;14522;52.068;4.414;2022-08-19T14:46:03;3.63;;;1.30;;
26965;SDS011;14522;52.068;4.414;2022-08-19T14:48:29;4.82;;;0.90;;
26965;SDS011;14522;52.068;4.414;2022-08-19T14:50:56;3.03;;;1.35;;
26965;SDS011;14522;52.068;4.414;2022-08-19T14:53:22;2.63;;;1.20;;
26965;SDS011;14522;52.068;4.414;2022-08-19T14:55:49;4.10;;;2.38;;
26965;SDS011;14522;52.068;4.414;2022-08-19T14:58:15;3.85;;;1.40;;
26965;SDS011;14522;52.068;4.414;2022-08-19T15:00:56;2.38;;;1.08;;